sensor_id;sensor_type;location;lat;lon;timestamp;P1;durP1;ratioP1;P2;durP2;ratioP2
11533;SDS011;5823;50.588;8.462;2022-09-01T00:00:02;0.47;;;0.47;;
11533;SDS011;5823;50.588;8.462;2022-09-01T00:02:30;0.80;;;0.30;;
11533;SDS011;5823;50.588;8.462;2022-09-01T00:04:58;0.13;;;0.13;;
11533;SDS011;5823;50.588;8.462;2022-09-01T00:07:27;0.35;;;0.35;;
11533;SDS011;5823;50.588;8.462;2022-09-01T00:09:54;0.30;;;0.30;;
11533;SDS011;5823;50.588;8.462;2022-09-01T00:12:20;0.15;;;0.15;;
11533;SDS011;5823;50.588;8.462;2022-09-01T00:14:49;0.30;;;0.30;;
11533;SDS011;5823;50.588;8.462;2022-09-01T00:17:15;0.20;;;0.20;;
11533;SDS011;5823;50.588;8.462;2022-09-01T00:19:42;0.20;;;0.20;;
11533;SDS011;5823;50.588;8.462;2022-09-01T00:22:10;0.40;;;0.40;;
11533;SDS011;5823;50.588;8.462;2022-09-01T00:24:36;0.25;;;0.25;;
11533;SDS011;5823;50.588;8.462;2022-09-01T00:27:03;0.30;;;0.30;;
11533;SDS011;5823;50.588;8.462;2022-09-01T00:29:29;0.20;;;0.20;;
11533;SDS011;5823;50.588;8.462;2022-09-01T00:31:56;0.20;;;0.20;;
11533;SDS011;5823;50.588;8.462;2022-09-01T00:34:23;0.30;;;0.30;;
11533;SDS011;5823;50.588;8.462;2022-09-01T00:36:49;0.17;;;0.17;;
11533;SDS011;5823;50.588;8.462;2022-09-01T00:39:17;0.20;;;0.20;;
11533;SDS011;5823;50.588;8.462;2022-09-01T00:41:43;0.22;;;0.22;;
11533;SDS011;5823;50.588;8.462;2022-09-01T00:44:12;0.20;;;0.20;;
11533;SDS011;5823;50.588;8.462;2022-09-01T00:46:39;0.10;;;0.10;;
11533;SDS011;5823;50.588;8.462;2022-09-01T00:49:07;0.20;;;0.20;;
11533;SDS011;5823;50.588;8.462;2022-09-01T00:51:34;0.20;;;0.20;;
11533;SDS011;5823;50.588;8.462;2022-09-01T00:54:02;0.35;;;0.35;;
11533;SDS011;5823;50.588;8.462;2022-09-01T00:56:31;0.25;;;0.25;;
11533;SDS011;5823;50.588;8.462;2022-09-01T00:58:58;0.40;;;0.40;;
11533;SDS011;5823;50.588;8.462;2022-09-01T01:01:25;0.50;;;0.43;;
11533;SDS011;5823;50.588;8.462;2022-09-01T01:03:51;0.30;;;0.30;;
11533;SDS011;5823;50.588;8.462;2022-09-01T01:06:18;0.30;;;0.30;;
11533;SDS011;5823;50.588;8.462;2022-09-01T01:08:48;0.20;;;0.20;;
11533;SDS011;5823;50.588;8.462;2022-09-01T01:11:21;0.35;;;0.35;;
11533;SDS011;5823;50.588;8.462;2022-09-01T01:13:49;0.20;;;0.20;;
11533;SDS011;5823;50.588;8.462;2022-09-01T01:16:16;0.30;;;0.30;;
11533;SDS011;5823;50.588;8.462;2022-09-01T01:18:43;0.47;;;0.47;;
11533;SDS011;5823;50.588;8.462;2022-09-01T01:21:13;0.30;;;0.30;;
11533;SDS011;5823;50.588;8.462;2022-09-01T01:24:05;0.20;;;0.20;;
11533;SDS011;5823;50.588;8.462;2022-09-01T01:26:35;0.30;;;0.30;;
11533;SDS011;5823;50.588;8.462;2022-09-01T01:29:02;0.35;;;0.35;;
11533;SDS011;5823;50.588;8.462;2022-09-01T01:31:28;0.30;;;0.30;;
11533;SDS011;5823;50.588;8.462;2022-09-01T01:33:56;0.40;;;0.40;;
11533;SDS011;5823;50.588;8.462;2022-09-01T01:36:24;0.32;;;0.32;;
11533;SDS011;5823;50.588;8.462;2022-09-01T01:38:56;0.45;;;0.45;;
11533;SDS011;5823;50.588;8.462;2022-09-01T01:41:27;0.40;;;0.40;;
11533;SDS011;5823;50.588;8.462;2022-09-01T01:43:55;0.25;;;0.25;;
11533;SDS011;5823;50.588;8.462;2022-09-01T01:46:22;0.20;;;0.20;;
11533;SDS011;5823;50.588;8.462;2022-09-01T01:48:50;0.40;;;0.40;;
11533;SDS011;5823;50.588;8.462;2022-09-01T01:51:18;0.30;;;0.30;;
11533;SDS011;5823;50.588;8.462;2022-09-01T01:53:45;0.15;;;0.15;;
11533;SDS011;5823;50.588;8.462;2022-09-01T01:56:12;0.47;;;0.47;;
11533;SDS011;5823;50.588;8.462;2022-09-01T01:58:38;0.13;;;0.13;;
11533;SDS011;5823;50.588;8.462;2022-09-01T02:01:06;0.17;;;0.17;;
11533;SDS011;5823;50.588;8.462;2022-09-01T02:03:35;0.20;;;0.20;;
11533;SDS011;5823;50.588;8.462;2022-09-01T02:06:03;0.30;;;0.30;;
11533;SDS011;5823;50.588;8.462;2022-09-01T02:08:32;0.28;;;0.28;;
11533;SDS011;5823;50.588;8.462;2022-09-01T02:11:00;0.30;;;0.30;;
11533;SDS011;5823;50.588;8.462;2022-09-01T02:13:26;0.30;;;0.30;;
11533;SDS011;5823;50.588;8.462;2022-09-01T02:15:55;0.10;;;0.10;;
11533;SDS011;5823;50.588;8.462;2022-09-01T02:18:24;0.30;;;0.20;;
11533;SDS011;5823;50.588;8.462;2022-09-01T02:20:52;0.30;;;0.30;;
11533;SDS011;5823;50.588;8.462;2022-09-01T02:23:19;0.22;;;0.22;;
11533;SDS011;5823;50.588;8.462;2022-09-01T02:25:47;0.25;;;0.25;;
11533;SDS011;5823;50.588;8.462;2022-09-01T02:28:16;0.30;;;0.30;;
11533;SDS011;5823;50.588;8.462;2022-09-01T02:30:44;0.50;;;0.50;;
11533;SDS011;5823;50.588;8.462;2022-09-01T02:33:11;0.40;;;0.30;;
11533;SDS011;5823;50.588;8.462;2022-09-01T02:35:44;0.32;;;0.32;;
11533;SDS011;5823;50.588;8.462;2022-09-01T02:38:10;0.32;;;0.32;;
11533;SDS011;5823;50.588;8.462;2022-09-01T02:40:38;0.30;;;0.30;;
11533;SDS011;5823;50.588;8.462;2022-09-01T02:43:05;0.32;;;0.20;;
11533;SDS011;5823;50.588;8.462;2022-09-01T02:45:32;0.10;;;0.10;;
11533;SDS011;5823;50.588;8.462;2022-09-01T02:48:00;0.40;;;0.30;;
11533;SDS011;5823;50.588;8.462;2022-09-01T02:50:26;0.28;;;0.28;;
11533;SDS011;5823;50.588;8.462;2022-09-01T02:52:54;0.30;;;0.30;;
11533;SDS011;5823;50.588;8.462;2022-09-01T02:55:21;0.40;;;0.40;;
11533;SDS011;5823;50.588;8.462;2022-09-01T02:57:48;0.73;;;0.40;;
11533;SDS011;5823;50.588;8.462;2022-09-01T03:00:15;0.20;;;0.20;;
11533;SDS011;5823;50.588;8.462;2022-09-01T03:02:50;0.17;;;0.15;;
11533;SDS011;5823;50.588;8.462;2022-09-01T03:05:17;0.20;;;0.20;;
11533;SDS011;5823;50.588;8.462;2022-09-01T03:07:49;0.20;;;0.20;;
11533;SDS011;5823;50.588;8.462;2022-09-01T03:10:19;0.22;;;0.22;;
11533;SDS011;5823;50.588;8.462;2022-09-01T03:12:46;0.10;;;0.10;;
11533;SDS011;5823;50.588;8.462;2022-09-01T03:15:12;0.13;;;0.13;;
11533;SDS011;5823;50.588;8.462;2022-09-01T03:17:39;0.17;;;0.17;;
11533;SDS011;5823;50.588;8.462;2022-09-01T03:20:06;0.22;;;0.20;;
11533;SDS011;5823;50.588;8.462;2022-09-01T03:22:32;0.40;;;0.40;;
11533;SDS011;5823;50.588;8.462;2022-09-01T03:24:59;0.20;;;0.20;;
11533;SDS011;5823;50.588;8.462;2022-09-01T03:27:27;0.20;;;0.20;;
11533;SDS011;5823;50.588;8.462;2022-09-01T03:29:53;0.40;;;0.40;;
11533;SDS011;5823;50.588;8.462;2022-09-01T03:32:19;0.10;;;0.10;;
11533;SDS011;5823;50.588;8.462;2022-09-01T03:34:46;0.25;;;0.25;;
11533;SDS011;5823;50.588;8.462;2022-09-01T03:37:12;0.20;;;0.20;;
11533;SDS011;5823;50.588;8.462;2022-09-01T03:39:39;0.28;;;0.28;;
11533;SDS011;5823;50.588;8.462;2022-09-01T03:42:05;0.20;;;0.20;;
11533;SDS011;5823;50.588;8.462;2022-09-01T03:44:36;0.20;;;0.20;;
11533;SDS011;5823;50.588;8.462;2022-09-01T03:47:04;0.32;;;0.32;;
11533;SDS011;5823;50.588;8.462;2022-09-01T03:49:34;0.40;;;0.40;;
11533;SDS011;5823;50.588;8.462;2022-09-01T03:52:01;0.30;;;0.30;;
11533;SDS011;5823;50.588;8.462;2022-09-01T03:54:27;0.30;;;0.30;;
11533;SDS011;5823;50.588;8.462;2022-09-01T03:56:54;0.13;;;0.13;;
11533;SDS011;5823;50.588;8.462;2022-09-01T03:59:23;0.13;;;0.13;;
11533;SDS011;5823;50.588;8.462;2022-09-01T04:01:53;0.20;;;0.20;;
11533;SDS011;5823;50.588;8.462;2022-09-01T04:04:21;0.20;;;0.20;;
11533;SDS011;5823;50.588;8.462;2022-09-01T04:06:47;0.10;;;0.10;;
11533;SDS011;5823;50.588;8.462;2022-09-01T04:09:14;0.30;;;0.30;;
11533;SDS011;5823;50.588;8.462;2022-09-01T04:11:40;0.30;;;0.30;;
11533;SDS011;5823;50.588;8.462;2022-09-01T04:14:10;0.30;;;0.30;;
11533;SDS011;5823;50.588;8.462;2022-09-01T04:16:36;0.20;;;0.20;;
11533;SDS011;5823;50.588;8.462;2022-09-01T04:19:22;0.20;;;0.20;;
11533;SDS011;5823;50.588;8.462;2022-09-01T04:21:51;0.10;;;0.10;;
11533;SDS011;5823;50.588;8.462;2022-09-01T04:24:18;0.32;;;0.30;;
11533;SDS011;5823;50.588;8.462;2022-09-01T04:26:48;0.32;;;0.32;;
11533;SDS011;5823;50.588;8.462;2022-09-01T04:29:14;0.25;;;0.25;;
11533;SDS011;5823;50.588;8.462;2022-09-01T04:31:43;0.30;;;0.30;;
11533;SDS011;5823;50.588;8.462;2022-09-01T04:34:16;0.20;;;0.20;;
11533;SDS011;5823;50.588;8.462;2022-09-01T04:36:43;0.30;;;0.30;;
11533;SDS011;5823;50.588;8.462;2022-09-01T04:39:10;0.28;;;0.20;;
11533;SDS011;5823;50.588;8.462;2022-09-01T04:41:38;0.17;;;0.17;;
11533;SDS011;5823;50.588;8.462;2022-09-01T04:44:05;0.20;;;0.20;;
11533;SDS011;5823;50.588;8.462;2022-09-01T04:46:32;0.17;;;0.10;;
11533;SDS011;5823;50.588;8.462;2022-09-01T04:49:00;0.22;;;0.22;;
11533;SDS011;5823;50.588;8.462;2022-09-01T04:51:30;0.28;;;0.28;;
11533;SDS011;5823;50.588;8.462;2022-09-01T04:53:58;0.38;;;0.38;;
11533;SDS011;5823;50.588;8.462;2022-09-01T04:56:26;0.13;;;0.13;;
11533;SDS011;5823;50.588;8.462;2022-09-01T04:58:54;0.20;;;0.20;;
11533;SDS011;5823;50.588;8.462;2022-09-01T05:01:21;0.17;;;0.17;;
11533;SDS011;5823;50.588;8.462;2022-09-01T05:03:48;0.30;;;0.30;;
11533;SDS011;5823;50.588;8.462;2022-09-01T05:06:20;0.25;;;0.20;;
11533;SDS011;5823;50.588;8.462;2022-09-01T05:08:47;0.20;;;0.20;;
11533;SDS011;5823;50.588;8.462;2022-09-01T05:11:17;0.17;;;0.17;;
11533;SDS011;5823;50.588;8.462;2022-09-01T05:13:44;0.13;;;0.13;;
11533;SDS011;5823;50.588;8.462;2022-09-01T05:16:11;0.35;;;0.35;;
11533;SDS011;5823;50.588;8.462;2022-09-01T05:18:39;0.10;;;0.10;;
11533;SDS011;5823;50.588;8.462;2022-09-01T05:21:09;0.20;;;0.20;;
11533;SDS011;5823;50.588;8.462;2022-09-01T05:23:35;0.30;;;0.30;;
11533;SDS011;5823;50.588;8.462;2022-09-01T05:26:04;0.20;;;0.20;;
11533;SDS011;5823;50.588;8.462;2022-09-01T05:28:40;0.38;;;0.38;;
11533;SDS011;5823;50.588;8.462;2022-09-01T05:31:07;0.55;;;0.20;;
11533;SDS011;5823;50.588;8.462;2022-09-01T05:33:34;0.10;;;0.10;;
11533;SDS011;5823;50.588;8.462;2022-09-01T05:36:01;0.75;;;0.30;;
11533;SDS011;5823;50.588;8.462;2022-09-01T05:38:32;0.10;;;0.10;;
11533;SDS011;5823;50.588;8.462;2022-09-01T05:40:59;0.30;;;0.30;;
11533;SDS011;5823;50.588;8.462;2022-09-01T05:43:27;0.05;;;0.05;;
11533;SDS011;5823;50.588;8.462;2022-09-01T05:45:56;0.15;;;0.15;;
11533;SDS011;5823;50.588;8.462;2022-09-01T05:48:23;0.17;;;0.17;;
11533;SDS011;5823;50.588;8.462;2022-09-01T05:50:49;0.10;;;0.10;;
11533;SDS011;5823;50.588;8.462;2022-09-01T05:53:20;0.20;;;0.20;;
11533;SDS011;5823;50.588;8.462;2022-09-01T05:55:49;0.10;;;0.10;;
11533;SDS011;5823;50.588;8.462;2022-09-01T05:58:21;0.10;;;0.10;;
11533;SDS011;5823;50.588;8.462;2022-09-01T06:00:49;0.30;;;0.30;;
11533;SDS011;5823;50.588;8.462;2022-09-01T06:03:19;0.17;;;0.17;;
11533;SDS011;5823;50.588;8.462;2022-09-01T06:05:46;0.17;;;0.17;;
11533;SDS011;5823;50.588;8.462;2022-09-01T06:08:16;0.22;;;0.22;;
11533;SDS011;5823;50.588;8.462;2022-09-01T06:10:43;0.20;;;0.20;;
11533;SDS011;5823;50.588;8.462;2022-09-01T06:13:10;0.30;;;0.30;;
11533;SDS011;5823;50.588;8.462;2022-09-01T06:15:40;0.20;;;0.20;;
11533;SDS011;5823;50.588;8.462;2022-09-01T06:18:07;0.20;;;0.20;;
11533;SDS011;5823;50.588;8.462;2022-09-01T06:20:38;0.30;;;0.30;;
11533;SDS011;5823;50.588;8.462;2022-09-01T06:23:05;0.20;;;0.20;;
11533;SDS011;5823;50.588;8.462;2022-09-01T06:25:31;0.38;;;0.38;;
11533;SDS011;5823;50.588;8.462;2022-09-01T06:27:58;0.30;;;0.30;;
11533;SDS011;5823;50.588;8.462;2022-09-01T06:30:28;0.35;;;0.35;;
11533;SDS011;5823;50.588;8.462;2022-09-01T06:32:57;0.20;;;0.20;;
11533;SDS011;5823;50.588;8.462;2022-09-01T06:35:25;0.20;;;0.20;;
11533;SDS011;5823;50.588;8.462;2022-09-01T06:37:54;1.08;;;0.40;;
11533;SDS011;5823;50.588;8.462;2022-09-01T06:40:22;0.20;;;0.20;;
11533;SDS011;5823;50.588;8.462;2022-09-01T06:42:50;0.13;;;0.13;;
11533;SDS011;5823;50.588;8.462;2022-09-01T06:45:17;0.20;;;0.20;;
11533;SDS011;5823;50.588;8.462;2022-09-01T06:47:45;0.30;;;0.30;;
11533;SDS011;5823;50.588;8.462;2022-09-01T06:50:13;0.40;;;0.40;;
11533;SDS011;5823;50.588;8.462;2022-09-01T06:52:40;0.20;;;0.20;;
11533;SDS011;5823;50.588;8.462;2022-09-01T06:55:08;0.73;;;0.40;;
11533;SDS011;5823;50.588;8.462;2022-09-01T06:57:35;0.40;;;0.40;;
11533;SDS011;5823;50.588;8.462;2022-09-01T07:00:03;0.22;;;0.22;;
11533;SDS011;5823;50.588;8.462;2022-09-01T07:02:35;0.25;;;0.25;;
11533;SDS011;5823;50.588;8.462;2022-09-01T07:05:03;0.30;;;0.30;;
11533;SDS011;5823;50.588;8.462;2022-09-01T07:07:31;0.30;;;0.30;;
11533;SDS011;5823;50.588;8.462;2022-09-01T07:09:58;1.98;;;0.30;;
11533;SDS011;5823;50.588;8.462;2022-09-01T07:12:26;0.43;;;0.43;;
11533;SDS011;5823;50.588;8.462;2022-09-01T07:14:52;0.20;;;0.20;;
11533;SDS011;5823;50.588;8.462;2022-09-01T07:17:19;0.30;;;0.30;;
11533;SDS011;5823;50.588;8.462;2022-09-01T07:19:45;0.20;;;0.20;;
11533;SDS011;5823;50.588;8.462;2022-09-01T07:22:12;0.00;;;0.00;;
11533;SDS011;5823;50.588;8.462;2022-09-01T07:24:38;0.30;;;0.30;;
11533;SDS011;5823;50.588;8.462;2022-09-01T07:27:04;0.20;;;0.20;;
11533;SDS011;5823;50.588;8.462;2022-09-01T07:29:34;0.30;;;0.30;;
11533;SDS011;5823;50.588;8.462;2022-09-01T07:32:01;0.20;;;0.20;;
11533;SDS011;5823;50.588;8.462;2022-09-01T07:34:28;0.35;;;0.20;;
11533;SDS011;5823;50.588;8.462;2022-09-01T07:36:54;0.17;;;0.17;;
11533;SDS011;5823;50.588;8.462;2022-09-01T07:39:21;0.30;;;0.30;;
11533;SDS011;5823;50.588;8.462;2022-09-01T07:41:47;0.20;;;0.20;;
11533;SDS011;5823;50.588;8.462;2022-09-01T07:44:13;0.10;;;0.10;;
11533;SDS011;5823;50.588;8.462;2022-09-01T07:46:41;0.30;;;0.20;;
11533;SDS011;5823;50.588;8.462;2022-09-01T07:49:08;0.10;;;0.10;;
11533;SDS011;5823;50.588;8.462;2022-09-01T07:51:35;0.20;;;0.20;;
11533;SDS011;5823;50.588;8.462;2022-09-01T07:54:01;0.00;;;0.00;;
11533;SDS011;5823;50.588;8.462;2022-09-01T07:56:28;0.08;;;0.08;;
11533;SDS011;5823;50.588;8.462;2022-09-01T07:58:55;0.10;;;0.10;;
11533;SDS011;5823;50.588;8.462;2022-09-01T08:01:23;0.10;;;0.10;;
11533;SDS011;5823;50.588;8.462;2022-09-01T08:03:51;0.10;;;0.10;;
11533;SDS011;5823;50.588;8.462;2022-09-01T08:06:19;0.10;;;0.10;;
11533;SDS011;5823;50.588;8.462;2022-09-01T08:08:46;0.20;;;0.20;;
11533;SDS011;5823;50.588;8.462;2022-09-01T08:11:17;0.20;;;0.20;;
11533;SDS011;5823;50.588;8.462;2022-09-01T08:13:44;0.10;;;0.10;;
11533;SDS011;5823;50.588;8.462;2022-09-01T08:16:11;0.10;;;0.10;;
11533;SDS011;5823;50.588;8.462;2022-09-01T08:18:38;0.10;;;0.10;;
11533;SDS011;5823;50.588;8.462;2022-09-01T08:21:06;0.10;;;0.10;;
11533;SDS011;5823;50.588;8.462;2022-09-01T08:23:33;0.20;;;0.20;;
11533;SDS011;5823;50.588;8.462;2022-09-01T08:26:03;0.17;;;0.17;;
11533;SDS011;5823;50.588;8.462;2022-09-01T08:28:30;0.10;;;0.10;;
11533;SDS011;5823;50.588;8.462;2022-09-01T08:30:57;0.10;;;0.10;;
11533;SDS011;5823;50.588;8.462;2022-09-01T08:33:24;0.00;;;0.00;;
11533;SDS011;5823;50.588;8.462;2022-09-01T08:35:51;0.10;;;0.10;;
11533;SDS011;5823;50.588;8.462;2022-09-01T08:38:19;0.10;;;0.10;;
11533;SDS011;5823;50.588;8.462;2022-09-01T08:40:49;0.20;;;0.20;;
11533;SDS011;5823;50.588;8.462;2022-09-01T08:43:17;0.20;;;0.08;;
11533;SDS011;5823;50.588;8.462;2022-09-01T08:45:47;0.15;;;0.15;;
11533;SDS011;5823;50.588;8.462;2022-09-01T08:48:15;0.10;;;0.10;;
11533;SDS011;5823;50.588;8.462;2022-09-01T08:50:43;0.20;;;0.20;;
11533;SDS011;5823;50.588;8.462;2022-09-01T08:53:12;0.10;;;0.10;;
11533;SDS011;5823;50.588;8.462;2022-09-01T08:55:46;0.10;;;0.10;;
11533;SDS011;5823;50.588;8.462;2022-09-01T08:58:14;0.30;;;0.30;;
11533;SDS011;5823;50.588;8.462;2022-09-01T09:00:42;0.10;;;0.10;;
11533;SDS011;5823;50.588;8.462;2022-09-01T09:03:12;0.10;;;0.10;;
11533;SDS011;5823;50.588;8.462;2022-09-01T09:05:45;0.20;;;0.20;;
11533;SDS011;5823;50.588;8.462;2022-09-01T09:11:02;0.25;;;0.25;;
11533;SDS011;5823;50.588;8.462;2022-09-01T09:13:34;0.17;;;0.17;;
11533;SDS011;5823;50.588;8.462;2022-09-01T09:16:05;0.03;;;0.03;;
11533;SDS011;5823;50.588;8.462;2022-09-01T09:18:35;0.08;;;0.08;;
11533;SDS011;5823;50.588;8.462;2022-09-01T09:21:05;0.17;;;0.17;;
11533;SDS011;5823;50.588;8.462;2022-09-01T09:23:35;0.20;;;0.20;;
11533;SDS011;5823;50.588;8.462;2022-09-01T09:26:04;0.20;;;0.20;;
11533;SDS011;5823;50.588;8.462;2022-09-01T09:28:31;0.10;;;0.10;;
11533;SDS011;5823;50.588;8.462;2022-09-01T09:33:44;0.10;;;0.10;;
11533;SDS011;5823;50.588;8.462;2022-09-01T09:36:16;0.10;;;0.10;;
11533;SDS011;5823;50.588;8.462;2022-09-01T09:38:44;0.03;;;0.03;;
11533;SDS011;5823;50.588;8.462;2022-09-01T09:41:15;0.10;;;0.10;;
11533;SDS011;5823;50.588;8.462;2022-09-01T09:43:42;0.05;;;0.00;;
11533;SDS011;5823;50.588;8.462;2022-09-01T09:46:21;0.30;;;0.30;;
11533;SDS011;5823;50.588;8.462;2022-09-01T09:48:49;0.30;;;0.30;;
11533;SDS011;5823;50.588;8.462;2022-09-01T09:51:15;0.28;;;0.28;;
11533;SDS011;5823;50.588;8.462;2022-09-01T09:53:42;0.20;;;0.20;;
11533;SDS011;5823;50.588;8.462;2022-09-01T09:56:15;0.20;;;0.20;;
11533;SDS011;5823;50.588;8.462;2022-09-01T09:58:44;0.57;;;0.57;;
11533;SDS011;5823;50.588;8.462;2022-09-01T10:01:12;0.20;;;0.20;;
11533;SDS011;5823;50.588;8.462;2022-09-01T10:03:42;0.20;;;0.20;;
11533;SDS011;5823;50.588;8.462;2022-09-01T10:06:09;0.20;;;0.20;;
11533;SDS011;5823;50.588;8.462;2022-09-01T10:08:37;0.10;;;0.10;;
11533;SDS011;5823;50.588;8.462;2022-09-01T10:11:08;0.13;;;0.13;;
11533;SDS011;5823;50.588;8.462;2022-09-01T10:13:35;0.30;;;0.30;;
11533;SDS011;5823;50.588;8.462;2022-09-01T10:16:03;0.20;;;0.20;;
11533;SDS011;5823;50.588;8.462;2022-09-01T10:18:34;0.10;;;0.10;;
11533;SDS011;5823;50.588;8.462;2022-09-01T10:21:02;0.68;;;0.25;;
11533;SDS011;5823;50.588;8.462;2022-09-01T10:23:29;0.20;;;0.20;;
11533;SDS011;5823;50.588;8.462;2022-09-01T10:26:00;0.20;;;0.20;;
11533;SDS011;5823;50.588;8.462;2022-09-01T10:28:27;0.28;;;0.28;;
11533;SDS011;5823;50.588;8.462;2022-09-01T10:30:56;0.45;;;0.45;;
11533;SDS011;5823;50.588;8.462;2022-09-01T10:33:25;0.10;;;0.10;;
11533;SDS011;5823;50.588;8.462;2022-09-01T10:35:52;0.20;;;0.20;;
11533;SDS011;5823;50.588;8.462;2022-09-01T10:38:19;0.20;;;0.20;;
11533;SDS011;5823;50.588;8.462;2022-09-01T10:40:47;0.43;;;0.32;;
11533;SDS011;5823;50.588;8.462;2022-09-01T10:43:35;0.30;;;0.30;;
11533;SDS011;5823;50.588;8.462;2022-09-01T10:48:52;0.40;;;0.40;;
11533;SDS011;5823;50.588;8.462;2022-09-01T10:54:04;0.40;;;0.38;;
11533;SDS011;5823;50.588;8.462;2022-09-01T10:56:36;0.40;;;0.40;;
11533;SDS011;5823;50.588;8.462;2022-09-01T10:59:03;0.20;;;0.20;;
11533;SDS011;5823;50.588;8.462;2022-09-01T11:04:17;0.25;;;0.25;;
11533;SDS011;5823;50.588;8.462;2022-09-01T11:06:55;0.50;;;0.50;;
11533;SDS011;5823;50.588;8.462;2022-09-01T11:09:24;0.40;;;0.40;;
11533;SDS011;5823;50.588;8.462;2022-09-01T11:11:59;0.57;;;0.57;;
11533;SDS011;5823;50.588;8.462;2022-09-01T11:14:30;0.77;;;0.70;;
11533;SDS011;5823;50.588;8.462;2022-09-01T11:17:13;0.75;;;0.75;;
11533;SDS011;5823;50.588;8.462;2022-09-01T11:19:42;0.57;;;0.57;;
11533;SDS011;5823;50.588;8.462;2022-09-01T11:22:13;0.60;;;0.60;;
11533;SDS011;5823;50.588;8.462;2022-09-01T11:24:46;0.60;;;0.57;;
11533;SDS011;5823;50.588;8.462;2022-09-01T11:29:54;0.50;;;0.50;;
11533;SDS011;5823;50.588;8.462;2022-09-01T11:32:23;0.45;;;0.45;;
11533;SDS011;5823;50.588;8.462;2022-09-01T11:34:51;0.70;;;0.70;;
11533;SDS011;5823;50.588;8.462;2022-09-01T11:37:20;0.47;;;0.47;;
11533;SDS011;5823;50.588;8.462;2022-09-01T11:39:47;0.30;;;0.30;;
11533;SDS011;5823;50.588;8.462;2022-09-01T11:42:18;0.65;;;0.65;;
11533;SDS011;5823;50.588;8.462;2022-09-01T11:44:47;0.52;;;0.52;;
11533;SDS011;5823;50.588;8.462;2022-09-01T11:47:16;0.60;;;0.60;;
11533;SDS011;5823;50.588;8.462;2022-09-01T11:49:47;0.28;;;0.28;;
11533;SDS011;5823;50.588;8.462;2022-09-01T11:52:15;0.40;;;0.40;;
11533;SDS011;5823;50.588;8.462;2022-09-01T11:54:42;0.40;;;0.40;;
11533;SDS011;5823;50.588;8.462;2022-09-01T11:57:17;0.50;;;0.47;;
11533;SDS011;5823;50.588;8.462;2022-09-01T11:59:43;0.25;;;0.25;;
11533;SDS011;5823;50.588;8.462;2022-09-01T12:02:15;0.20;;;0.20;;
11533;SDS011;5823;50.588;8.462;2022-09-01T12:04:42;0.50;;;0.50;;
11533;SDS011;5823;50.588;8.462;2022-09-01T12:07:10;0.40;;;0.40;;
11533;SDS011;5823;50.588;8.462;2022-09-01T12:09:41;0.28;;;0.28;;
11533;SDS011;5823;50.588;8.462;2022-09-01T12:14:54;0.30;;;0.30;;
11533;SDS011;5823;50.588;8.462;2022-09-01T12:17:20;0.40;;;0.40;;
11533;SDS011;5823;50.588;8.462;2022-09-01T12:19:47;0.20;;;0.20;;
11533;SDS011;5823;50.588;8.462;2022-09-01T12:22:14;0.15;;;0.15;;
11533;SDS011;5823;50.588;8.462;2022-09-01T12:24:44;0.20;;;0.20;;
11533;SDS011;5823;50.588;8.462;2022-09-01T12:27:11;0.20;;;0.20;;
11533;SDS011;5823;50.588;8.462;2022-09-01T12:29:37;0.28;;;0.28;;
11533;SDS011;5823;50.588;8.462;2022-09-01T12:32:04;0.40;;;0.40;;
11533;SDS011;5823;50.588;8.462;2022-09-01T12:34:38;0.25;;;0.25;;
11533;SDS011;5823;50.588;8.462;2022-09-01T12:37:07;0.30;;;0.30;;
11533;SDS011;5823;50.588;8.462;2022-09-01T12:39:34;0.20;;;0.20;;
11533;SDS011;5823;50.588;8.462;2022-09-01T12:42:23;0.20;;;0.20;;
11533;SDS011;5823;50.588;8.462;2022-09-01T12:44:52;0.30;;;0.30;;
11533;SDS011;5823;50.588;8.462;2022-09-01T12:52:53;0.28;;;0.28;;
11533;SDS011;5823;50.588;8.462;2022-09-01T12:55:20;0.32;;;0.32;;
11533;SDS011;5823;50.588;8.462;2022-09-01T12:57:49;0.70;;;0.63;;
11533;SDS011;5823;50.588;8.462;2022-09-01T13:00:17;0.40;;;0.40;;
11533;SDS011;5823;50.588;8.462;2022-09-01T13:02:45;0.60;;;0.60;;
11533;SDS011;5823;50.588;8.462;2022-09-01T13:05:22;0.60;;;0.60;;
11533;SDS011;5823;50.588;8.462;2022-09-01T13:07:51;0.30;;;0.30;;
11533;SDS011;5823;50.588;8.462;2022-09-01T13:10:18;0.60;;;0.60;;
11533;SDS011;5823;50.588;8.462;2022-09-01T13:12:44;0.43;;;0.43;;
11533;SDS011;5823;50.588;8.462;2022-09-01T13:15:12;0.40;;;0.40;;
11533;SDS011;5823;50.588;8.462;2022-09-01T13:17:39;0.30;;;0.30;;
11533;SDS011;5823;50.588;8.462;2022-09-01T13:20:06;0.60;;;0.60;;
11533;SDS011;5823;50.588;8.462;2022-09-01T13:22:33;0.70;;;0.70;;
11533;SDS011;5823;50.588;8.462;2022-09-01T13:24:59;0.43;;;0.43;;
11533;SDS011;5823;50.588;8.462;2022-09-01T13:27:26;0.63;;;0.63;;
11533;SDS011;5823;50.588;8.462;2022-09-01T13:29:52;0.50;;;0.50;;
11533;SDS011;5823;50.588;8.462;2022-09-01T13:32:20;0.60;;;0.60;;
11533;SDS011;5823;50.588;8.462;2022-09-01T13:34:47;0.30;;;0.30;;
11533;SDS011;5823;50.588;8.462;2022-09-01T13:37:13;0.60;;;0.60;;
11533;SDS011;5823;50.588;8.462;2022-09-01T13:39:40;0.35;;;0.35;;
11533;SDS011;5823;50.588;8.462;2022-09-01T13:42:06;0.40;;;0.40;;
11533;SDS011;5823;50.588;8.462;2022-09-01T13:44:33;0.65;;;0.65;;
11533;SDS011;5823;50.588;8.462;2022-09-01T13:46:59;0.50;;;0.50;;
11533;SDS011;5823;50.588;8.462;2022-09-01T13:49:27;0.95;;;0.60;;
11533;SDS011;5823;50.588;8.462;2022-09-01T13:51:53;0.52;;;0.52;;
11533;SDS011;5823;50.588;8.462;2022-09-01T13:54:20;0.80;;;0.47;;
11533;SDS011;5823;50.588;8.462;2022-09-01T13:56:46;0.65;;;0.65;;
11533;SDS011;5823;50.588;8.462;2022-09-01T13:59:12;0.55;;;0.55;;
11533;SDS011;5823;50.588;8.462;2022-09-01T14:01:39;0.40;;;0.40;;
11533;SDS011;5823;50.588;8.462;2022-09-01T14:04:06;0.50;;;0.50;;
11533;SDS011;5823;50.588;8.462;2022-09-01T14:06:39;0.70;;;0.70;;
11533;SDS011;5823;50.588;8.462;2022-09-01T14:09:05;0.50;;;0.50;;
11533;SDS011;5823;50.588;8.462;2022-09-01T14:11:32;0.60;;;0.60;;
11533;SDS011;5823;50.588;8.462;2022-09-01T14:14:00;0.60;;;0.60;;
11533;SDS011;5823;50.588;8.462;2022-09-01T14:16:26;0.60;;;0.60;;
11533;SDS011;5823;50.588;8.462;2022-09-01T14:18:53;0.60;;;0.60;;
11533;SDS011;5823;50.588;8.462;2022-09-01T14:21:19;0.60;;;0.50;;
11533;SDS011;5823;50.588;8.462;2022-09-01T14:23:47;0.88;;;0.88;;
11533;SDS011;5823;50.588;8.462;2022-09-01T14:26:14;0.50;;;0.50;;
11533;SDS011;5823;50.588;8.462;2022-09-01T14:28:41;0.20;;;0.20;;
11533;SDS011;5823;50.588;8.462;2022-09-01T14:31:09;0.47;;;0.47;;
11533;SDS011;5823;50.588;8.462;2022-09-01T14:33:36;0.40;;;0.40;;
11533;SDS011;5823;50.588;8.462;2022-09-01T14:36:03;0.25;;;0.25;;
11533;SDS011;5823;50.588;8.462;2022-09-01T14:38:30;0.20;;;0.20;;
11533;SDS011;5823;50.588;8.462;2022-09-01T14:40:57;0.30;;;0.30;;
11533;SDS011;5823;50.588;8.462;2022-09-01T14:43:24;0.20;;;0.20;;
11533;SDS011;5823;50.588;8.462;2022-09-01T14:46:00;0.25;;;0.25;;
11533;SDS011;5823;50.588;8.462;2022-09-01T14:48:30;0.35;;;0.35;;
11533;SDS011;5823;50.588;8.462;2022-09-01T14:50:57;0.57;;;0.40;;
11533;SDS011;5823;50.588;8.462;2022-09-01T14:53:24;0.43;;;0.43;;
11533;SDS011;5823;50.588;8.462;2022-09-01T14:55:50;0.60;;;0.60;;
11533;SDS011;5823;50.588;8.462;2022-09-01T14:58:18;0.57;;;0.57;;
11533;SDS011;5823;50.588;8.462;2022-09-01T15:00:44;0.43;;;0.43;;
11533;SDS011;5823;50.588;8.462;2022-09-01T15:03:11;0.30;;;0.30;;
11533;SDS011;5823;50.588;8.462;2022-09-01T15:05:38;0.20;;;0.20;;
11533;SDS011;5823;50.588;8.462;2022-09-01T15:08:04;0.50;;;0.50;;
11533;SDS011;5823;50.588;8.462;2022-09-01T15:10:31;0.50;;;0.50;;
11533;SDS011;5823;50.588;8.462;2022-09-01T15:12:58;0.38;;;0.38;;
11533;SDS011;5823;50.588;8.462;2022-09-01T15:15:27;0.40;;;0.40;;
11533;SDS011;5823;50.588;8.462;2022-09-01T15:17:54;0.32;;;0.32;;
11533;SDS011;5823;50.588;8.462;2022-09-01T15:20:21;0.40;;;0.40;;
11533;SDS011;5823;50.588;8.462;2022-09-01T15:23:05;0.20;;;0.20;;
11533;SDS011;5823;50.588;8.462;2022-09-01T15:25:32;0.22;;;0.22;;
11533;SDS011;5823;50.588;8.462;2022-09-01T15:27:58;0.40;;;0.40;;
11533;SDS011;5823;50.588;8.462;2022-09-01T15:30:27;0.30;;;0.30;;